createdAt,value
2018-06-10T00:01:54.505Z,17.20
2018-06-10T00:04:24.521Z,17.10
2018-06-10T00:06:54.617Z,17.10
2018-06-10T00:09:24.688Z,17.10
2018-06-10T00:11:54.743Z,17.10
2018-06-10T00:16:54.451Z,17.10
2018-06-10T00:19:24.453Z,17.10
2018-06-10T00:21:54.512Z,17.10
2018-06-10T00:24:24.580Z,17.10
2018-06-10T00:26:54.628Z,17.10
2018-06-10T00:29:24.663Z,17.10
2018-06-10T00:31:54.691Z,17.10
2018-06-10T00:34:24.889Z,17.00
2018-06-10T00:36:54.906Z,17.00
2018-06-10T00:39:24.907Z,17.00
2018-06-10T00:41:54.923Z,17.00
2018-06-10T00:44:24.940Z,16.90
2018-06-10T00:46:54.982Z,16.90
2018-06-10T00:49:25.024Z,16.90
2018-06-10T00:51:55.186Z,16.90
2018-06-10T00:54:25.264Z,16.80
2018-06-10T00:56:55.360Z,16.80
2018-06-10T00:59:25.795Z,16.70
2018-06-10T01:01:55.873Z,16.70
2018-06-10T01:04:25.994Z,16.60
2018-06-10T01:06:56.127Z,16.60
2018-06-10T01:09:26.174Z,16.60
2018-06-10T01:11:56.251Z,16.50
2018-06-10T01:14:26.304Z,16.50
2018-06-10T01:16:56.379Z,16.50
2018-06-10T01:19:26.428Z,16.50
2018-06-10T01:21:56.468Z,16.50
2018-06-10T01:24:26.509Z,16.50
2018-06-10T01:26:56.581Z,16.40
2018-06-10T01:29:26.588Z,16.40
2018-06-10T01:31:56.674Z,16.40
2018-06-10T01:34:26.752Z,16.30
2018-06-10T01:36:56.838Z,16.30
2018-06-10T01:39:26.868Z,16.30
2018-06-10T01:41:56.959Z,16.30
2018-06-10T01:44:27.308Z,16.30
2018-06-10T01:46:57.444Z,16.30
2018-06-10T01:49:27.531Z,16.30
2018-06-10T01:51:57.597Z,16.30
2018-06-10T01:54:27.651Z,16.30
2018-06-10T01:56:57.709Z,16.30
2018-06-10T01:59:27.800Z,16.20
2018-06-10T02:01:57.871Z,16.20
2018-06-10T02:04:27.990Z,16.10
2018-06-10T02:06:58.084Z,16.10
2018-06-10T02:09:28.128Z,16.10
2018-06-10T02:11:58.245Z,16.00
2018-06-10T02:14:28.290Z,16.00
2018-06-10T02:16:58.316Z,16.00
2018-06-10T02:19:28.487Z,16.00
2018-06-10T02:21:58.632Z,15.90
2018-06-10T02:24:28.751Z,15.90
2018-06-10T02:26:58.872Z,15.90
2018-06-10T02:29:28.993Z,15.90
2018-06-10T02:31:59.030Z,15.90
2018-06-10T02:34:29.056Z,15.90
2018-06-10T02:36:59.142Z,15.90
2018-06-10T02:39:29.189Z,15.80
2018-06-10T02:41:59.217Z,15.80
2018-06-10T02:44:29.316Z,15.70
2018-06-10T02:46:59.373Z,15.70
2018-06-10T02:49:29.489Z,15.60
2018-06-10T02:52:00.478Z,15.70
2018-06-10T02:57:00.271Z,15.70
2018-06-10T02:59:30.340Z,15.70
2018-06-10T03:02:00.390Z,15.70
2018-06-10T03:04:30.429Z,15.70
2018-06-10T03:07:00.525Z,15.70
2018-06-10T03:09:30.636Z,15.70
2018-06-10T03:12:00.704Z,15.70
2018-06-10T03:14:30.812Z,15.60
2018-06-10T03:17:00.824Z,15.60
2018-06-10T03:19:31.268Z,15.60
2018-06-10T03:22:01.358Z,15.60
2018-06-10T03:24:31.399Z,15.60
2018-06-10T03:27:01.980Z,15.60
2018-06-10T03:29:32.061Z,15.60
2018-06-10T03:32:02.136Z,15.60
2018-06-10T03:34:32.193Z,15.60
2018-06-10T03:37:02.238Z,15.60
2018-06-10T03:39:32.309Z,15.60
2018-06-10T03:42:02.356Z,15.50
2018-06-10T03:44:32.460Z,15.50
2018-06-10T03:47:02.513Z,15.50
2018-06-10T03:49:32.588Z,15.50
2018-06-10T03:52:02.625Z,15.50
2018-06-10T03:54:32.709Z,15.50
2018-06-10T03:57:02.812Z,15.50
2018-06-10T03:59:32.882Z,15.50
2018-06-10T04:02:03.132Z,15.50
2018-06-10T04:04:33.193Z,15.60
2018-06-10T04:07:03.226Z,15.60
2018-06-10T04:09:33.328Z,15.60
2018-06-10T04:12:03.402Z,15.60
2018-06-10T04:14:33.468Z,15.70
2018-06-10T04:17:03.688Z,15.70
2018-06-10T04:19:33.799Z,15.80
2018-06-10T04:22:03.879Z,15.80
2018-06-10T04:24:33.929Z,15.90
2018-06-10T04:27:04.394Z,15.90
2018-06-10T04:29:34.503Z,15.90
2018-06-10T04:32:04.590Z,16.00
2018-06-10T04:34:34.652Z,16.10
2018-06-10T04:37:04.750Z,16.10
2018-06-10T04:39:35.301Z,16.10
2018-06-10T04:42:05.437Z,16.20
2018-06-10T04:44:35.505Z,16.20
2018-06-10T04:47:05.684Z,16.30
2018-06-10T04:49:35.726Z,16.30
2018-06-10T04:52:05.756Z,16.40
2018-06-10T04:54:35.848Z,16.50
2018-06-10T04:57:05.988Z,16.50
2018-06-10T04:59:36.070Z,16.60
2018-06-10T05:02:06.166Z,16.70
2018-06-10T05:04:36.231Z,16.70
2018-06-10T05:07:06.294Z,16.80
2018-06-10T05:09:36.431Z,16.90
2018-06-10T05:12:06.465Z,16.90
2018-06-10T05:14:36.505Z,17.00
2018-06-10T05:17:06.523Z,17.20
2018-06-10T05:19:37.359Z,17.30
2018-06-10T05:22:07.317Z,17.40
2018-06-10T05:24:37.402Z,17.50
2018-06-10T05:27:08.492Z,17.60
2018-06-10T05:29:38.539Z,17.70
2018-06-10T05:34:38.284Z,17.90
2018-06-10T05:37:08.408Z,18.10
2018-06-10T05:39:38.492Z,18.20
2018-06-10T05:42:08.544Z,18.30
2018-06-10T05:47:08.319Z,18.50
2018-06-10T05:49:38.367Z,18.70
2018-06-10T05:52:08.384Z,18.80
2018-06-10T05:54:38.464Z,18.90
2018-06-10T05:57:08.564Z,19.10
2018-06-10T05:59:38.613Z,19.20
2018-06-10T06:02:08.693Z,19.20
2018-06-10T06:04:38.678Z,19.40
2018-06-10T06:07:08.760Z,19.50
2018-06-10T06:09:38.779Z,19.60
2018-06-10T06:12:08.793Z,19.70
2018-06-10T06:14:38.751Z,19.80
2018-06-10T06:17:08.769Z,19.90
2018-06-10T06:19:38.774Z,20.00
2018-06-10T06:22:08.804Z,20.00
2018-06-10T06:24:39.333Z,20.10
2018-06-10T06:27:09.367Z,20.30
2018-06-10T06:29:39.375Z,20.30
2018-06-10T06:32:09.478Z,20.50
2018-06-10T06:34:39.555Z,20.70
2018-06-10T06:37:09.600Z,20.80
2018-06-10T06:39:39.680Z,20.90
2018-06-10T06:42:09.806Z,20.90
2018-06-10T06:44:39.826Z,21.00
2018-06-10T06:47:09.914Z,21.00
2018-06-10T06:49:39.923Z,21.00
2018-06-10T06:52:09.988Z,21.20
2018-06-10T06:54:40.248Z,21.30
2018-06-10T06:57:10.368Z,21.40
2018-06-10T06:59:41.361Z,21.50
2018-06-10T07:02:11.497Z,21.60
2018-06-10T07:04:41.532Z,21.70
2018-06-10T07:07:11.591Z,21.70
2018-06-10T07:09:41.591Z,21.50
2018-06-10T07:12:11.635Z,21.50
2018-06-10T07:17:11.379Z,21.70
2018-06-10T07:19:41.446Z,21.80
2018-06-10T07:22:11.493Z,21.80
2018-06-10T07:24:41.536Z,21.80
2018-06-10T07:27:11.618Z,21.80
2018-06-10T07:29:41.708Z,21.80
2018-06-10T07:32:11.853Z,21.90
2018-06-10T07:34:41.916Z,22.00
2018-06-10T07:37:12.075Z,22.10
2018-06-10T07:39:42.040Z,22.00
2018-06-10T07:42:12.051Z,22.20
2018-06-10T07:44:42.035Z,22.30
2018-06-10T07:47:12.118Z,22.00
2018-06-10T07:49:42.433Z,22.00
2018-06-10T07:52:12.541Z,22.30
2018-06-10T07:54:42.515Z,22.40
2018-06-10T07:57:12.910Z,22.50
2018-06-10T07:59:42.969Z,22.60
2018-06-10T08:02:13.140Z,22.70
2018-06-10T08:04:43.227Z,22.70
2018-06-10T08:07:13.381Z,22.80
2018-06-10T08:09:43.354Z,22.80
2018-06-10T08:12:13.381Z,22.90
2018-06-10T08:14:43.389Z,23.00
2018-06-10T08:17:13.447Z,23.10
2018-06-10T08:19:43.452Z,23.10
2018-06-10T08:22:13.459Z,23.20
2018-06-10T08:24:43.531Z,23.20
2018-06-10T08:27:13.542Z,23.20
2018-06-10T08:29:43.599Z,23.40
2018-06-10T08:32:13.603Z,23.60
2018-06-10T08:34:43.578Z,23.70
2018-06-10T08:37:13.611Z,23.60
2018-06-10T08:39:43.595Z,23.50
2018-06-10T08:42:13.632Z,23.60
2018-06-10T08:44:43.646Z,23.70
2018-06-10T08:47:13.715Z,23.80
2018-06-10T08:49:43.728Z,23.70
2018-06-10T08:52:13.782Z,23.60
2018-06-10T08:54:44.098Z,23.40
2018-06-10T08:57:14.464Z,23.30
2018-06-10T08:59:44.480Z,23.20
2018-06-10T09:02:14.488Z,23.20
2018-06-10T09:04:44.487Z,23.20
2018-06-10T09:07:14.588Z,23.10
2018-06-10T09:09:45.735Z,23.30
2018-06-10T09:12:15.869Z,23.30
2018-06-10T09:14:45.928Z,23.10
2018-06-10T09:17:15.910Z,23.20
2018-06-10T09:19:45.940Z,23.30
2018-06-10T09:22:16.030Z,23.50
2018-06-10T09:24:46.090Z,23.50
2018-06-10T09:27:16.183Z,23.50
2018-06-10T09:29:46.232Z,23.40
2018-06-10T09:32:16.235Z,23.50
2018-06-10T09:34:46.754Z,23.40
2018-06-10T09:37:16.859Z,23.40
2018-06-10T09:39:47.000Z,23.40
2018-06-10T09:42:17.056Z,23.40
2018-06-10T09:44:47.124Z,23.40
2018-06-10T09:47:17.244Z,23.40
2018-06-10T09:49:47.437Z,23.40
2018-06-10T09:52:17.602Z,23.20
2018-06-10T09:54:47.986Z,23.30
2018-06-10T09:57:18.184Z,23.40
2018-06-10T09:59:48.394Z,23.50
2018-06-10T10:02:18.737Z,23.70
2018-06-10T10:04:49.101Z,23.70
2018-06-10T10:07:19.333Z,23.80
2018-06-10T10:09:49.762Z,23.90
2018-06-10T10:12:20.214Z,23.90
2018-06-10T10:14:50.366Z,23.90
2018-06-10T10:17:20.761Z,23.60
2018-06-10T10:19:50.863Z,23.60
2018-06-10T10:22:20.918Z,23.50
2018-06-10T10:24:50.458Z,23.50
2018-06-10T10:27:20.604Z,23.60
2018-06-10T10:29:50.858Z,23.60
2018-06-10T10:32:21.193Z,23.60
2018-06-10T10:34:51.279Z,23.60
2018-06-10T10:37:21.384Z,23.70
2018-06-10T10:39:51.418Z,23.90
2018-06-10T10:42:21.540Z,24.10
2018-06-10T10:44:51.642Z,24.20
2018-06-10T10:47:21.944Z,24.20
2018-06-10T10:49:51.973Z,24.30
2018-06-10T10:52:22.264Z,24.50
2018-06-10T10:54:53.410Z,24.60
2018-06-10T10:57:23.647Z,24.80
2018-06-10T10:59:53.736Z,24.90
2018-06-10T11:02:23.757Z,24.90
2018-06-10T11:04:53.781Z,25.00
2018-06-10T11:07:24.134Z,25.00
2018-06-10T11:09:54.205Z,24.90
2018-06-10T11:12:24.371Z,24.80
2018-06-10T11:14:54.729Z,24.80
2018-06-10T11:17:24.807Z,24.90
2018-06-10T11:19:54.836Z,24.80
2018-06-10T11:22:25.013Z,24.80
2018-06-10T11:24:55.058Z,24.70
2018-06-10T11:27:25.285Z,24.80
2018-06-10T11:29:55.332Z,24.80
2018-06-10T11:34:55.468Z,24.70
2018-06-10T11:37:25.648Z,24.60
2018-06-10T11:39:55.719Z,24.80
2018-06-10T11:42:26.512Z,25.10
2018-06-10T11:44:56.533Z,25.30
2018-06-10T11:47:26.677Z,25.40
2018-06-10T11:49:56.764Z,25.50
2018-06-10T11:52:26.888Z,25.60
2018-06-10T11:54:57.132Z,25.50
2018-06-10T11:57:27.334Z,25.60
2018-06-10T11:59:57.401Z,25.70
2018-06-10T12:02:27.386Z,25.60
2018-06-10T12:04:57.429Z,25.60
2018-06-10T12:07:27.633Z,25.40
2018-06-10T12:09:57.833Z,25.40
2018-06-10T12:12:28.054Z,25.40
2018-06-10T12:14:58.359Z,25.30
2018-06-10T12:17:29.169Z,25.50
2018-06-10T12:19:59.242Z,25.30
2018-06-10T12:27:29.527Z,25.50
2018-06-10T12:29:59.748Z,25.60
2018-06-10T12:32:30.910Z,25.50
2018-06-10T12:35:00.959Z,25.20
2018-06-10T12:37:31.196Z,25.40
2018-06-10T12:40:01.249Z,25.40
2018-06-10T12:42:31.405Z,25.40
2018-06-10T12:45:01.541Z,25.40
2018-06-10T12:47:32.314Z,25.10
2018-06-10T12:50:02.379Z,25.00
2018-06-10T12:52:32.755Z,25.00
2018-06-10T12:55:02.925Z,24.90
2018-06-10T12:57:33.123Z,24.90
2018-06-10T13:00:03.260Z,24.80
2018-06-10T13:02:33.393Z,24.60
2018-06-10T13:05:03.434Z,24.70
2018-06-10T13:07:33.654Z,24.90
2018-06-10T13:10:03.809Z,25.00
2018-06-10T13:12:34.028Z,25.10
2018-06-10T13:15:04.067Z,25.00
2018-06-10T13:17:34.319Z,25.00
2018-06-10T13:22:34.269Z,24.80
2018-06-10T13:25:04.776Z,24.70
2018-06-10T13:27:35.043Z,24.60
2018-06-10T13:30:05.916Z,24.60
2018-06-10T13:32:36.016Z,24.70
2018-06-10T13:35:06.216Z,24.70
2018-06-10T13:37:36.271Z,24.60
2018-06-10T13:40:06.474Z,24.60
2018-06-10T13:42:36.614Z,24.50
2018-06-10T13:45:06.673Z,24.50
2018-06-10T13:47:36.878Z,24.60
2018-06-10T13:50:07.077Z,24.60
2018-06-10T13:52:37.187Z,24.50
2018-06-10T13:55:07.297Z,24.60
2018-06-10T13:57:37.450Z,24.60
2018-06-10T14:00:07.742Z,24.40
2018-06-10T14:02:38.056Z,24.40
2018-06-10T14:05:08.141Z,24.40
2018-06-10T14:07:38.322Z,24.50
2018-06-10T14:12:41.086Z,24.30
2018-06-10T14:15:11.379Z,24.30
2018-06-10T14:17:41.715Z,24.30
2018-06-10T14:20:12.009Z,24.30
2018-06-10T14:22:42.142Z,24.30
2018-06-10T14:25:12.345Z,24.30
2018-06-10T14:27:42.450Z,24.40
2018-06-10T14:30:12.781Z,24.20
2018-06-10T14:32:42.936Z,24.20
2018-06-10T14:35:13.151Z,24.30
2018-06-10T14:37:43.726Z,23.90
2018-06-10T14:40:14.021Z,23.90
2018-06-10T14:42:45.227Z,23.80
2018-06-10T14:45:15.389Z,23.70
2018-06-10T14:47:45.625Z,23.60
2018-06-10T14:50:15.777Z,23.60
2018-06-10T14:52:45.976Z,23.50
2018-06-10T14:55:16.198Z,23.60
2018-06-10T14:57:46.378Z,23.60
2018-06-10T15:00:16.588Z,23.70
2018-06-10T15:02:46.985Z,23.80
2018-06-10T15:05:17.124Z,23.90
2018-06-10T15:07:47.339Z,24.00
2018-06-10T15:10:17.449Z,24.10
2018-06-10T15:12:47.567Z,24.10
2018-06-10T15:15:17.700Z,24.20
2018-06-10T15:17:47.978Z,24.30
2018-06-10T15:20:18.046Z,24.30
2018-06-10T15:22:48.330Z,24.40
2018-06-10T15:25:18.774Z,24.40
2018-06-10T15:27:49.132Z,24.40
2018-06-10T15:30:19.396Z,24.50
2018-06-10T15:32:49.611Z,24.60
2018-06-10T15:35:19.928Z,24.50
2018-06-10T15:37:50.279Z,24.50
2018-06-10T15:40:20.558Z,24.60
2018-06-10T15:42:50.930Z,24.50
2018-06-10T15:45:21.122Z,24.60
2018-06-10T15:47:51.426Z,24.70
2018-06-10T15:50:21.739Z,24.80
2018-06-10T15:52:52.024Z,24.80
2018-06-10T15:55:22.398Z,25.00
2018-06-10T15:57:52.786Z,25.00
2018-06-10T16:00:23.133Z,25.10
2018-06-10T16:02:53.428Z,25.10
2018-06-10T16:05:24.710Z,25.10
2018-06-10T16:07:55.042Z,25.10
2018-06-10T16:10:25.978Z,25.00
2018-06-10T16:12:56.849Z,25.10
2018-06-10T16:15:27.070Z,25.10
2018-06-10T16:17:57.169Z,25.10
2018-06-10T16:20:30.196Z,25.00
2018-06-10T16:23:00.382Z,25.00
2018-06-10T16:25:30.589Z,25.00
2018-06-10T16:28:00.718Z,24.90
2018-06-10T16:30:30.767Z,24.70
2018-06-10T16:33:01.852Z,24.80
2018-06-10T16:35:32.116Z,24.80
2018-06-10T16:38:02.495Z,24.70
2018-06-10T16:40:32.653Z,24.70
2018-06-10T16:43:02.716Z,24.60
2018-06-10T16:45:32.802Z,24.60
2018-06-10T16:48:02.860Z,24.60
2018-06-10T16:50:32.972Z,24.50
2018-06-10T16:53:03.056Z,24.40
2018-06-10T16:55:33.163Z,24.40
2018-06-10T16:58:03.261Z,24.50
2018-06-10T17:00:33.425Z,24.40
2018-06-10T17:03:03.573Z,24.40
2018-06-10T17:05:33.704Z,24.20
2018-06-10T17:08:03.989Z,24.30
2018-06-10T17:10:34.079Z,24.40
2018-06-10T17:13:04.311Z,24.50
2018-06-10T17:15:34.481Z,24.60
2018-06-10T17:18:04.572Z,24.40
2018-06-10T17:20:34.702Z,24.40
2018-06-10T17:23:04.882Z,24.20
2018-06-10T17:25:35.005Z,24.10
2018-06-10T17:28:05.201Z,24.20
2018-06-10T17:30:35.325Z,24.20
2018-06-10T17:33:05.407Z,24.20
2018-06-10T17:38:05.302Z,24.10
2018-06-10T17:40:35.431Z,24.10
2018-06-10T17:43:05.557Z,24.00
2018-06-10T17:45:35.669Z,24.10
2018-06-10T17:48:05.725Z,24.00
2018-06-10T17:50:35.922Z,24.10
2018-06-10T17:53:06.195Z,24.10
2018-06-10T17:55:36.299Z,24.10
2018-06-10T17:58:06.691Z,24.00
2018-06-10T18:00:36.865Z,24.00
2018-06-10T18:03:07.554Z,24.10
2018-06-10T18:05:38.818Z,24.00
2018-06-10T18:08:09.048Z,24.00
2018-06-10T18:10:39.293Z,23.90
2018-06-10T18:13:09.782Z,23.90
2018-06-10T18:15:39.909Z,23.80
2018-06-10T18:18:10.145Z,23.80
2018-06-10T18:20:40.228Z,23.70
2018-06-10T18:23:10.265Z,23.60
2018-06-10T18:25:40.331Z,23.60
2018-06-10T18:28:10.467Z,23.50
2018-06-10T18:30:40.697Z,23.40
2018-06-10T18:33:11.000Z,23.20
2018-06-10T18:35:41.270Z,23.20
2018-06-10T18:38:11.358Z,23.20
2018-06-10T18:40:41.527Z,23.20
2018-06-10T18:43:11.905Z,23.10
2018-06-10T18:45:42.069Z,23.00
2018-06-10T18:48:12.201Z,22.90
2018-06-10T18:50:42.455Z,22.80
2018-06-10T18:53:13.463Z,22.70
2018-06-10T18:55:43.747Z,22.60
2018-06-10T18:58:14.539Z,22.60
2018-06-10T19:00:44.704Z,22.50
2018-06-10T19:03:14.928Z,22.40
2018-06-10T19:05:45.091Z,22.30
2018-06-10T19:08:15.204Z,22.10
2018-06-10T19:10:45.466Z,22.00
2018-06-10T19:13:15.689Z,21.80
2018-06-10T19:15:45.940Z,21.60
2018-06-10T19:18:16.038Z,21.50
2018-06-10T19:20:46.264Z,21.50
2018-06-10T19:23:16.654Z,21.30
2018-06-10T19:28:16.578Z,21.20
2018-06-10T19:30:46.771Z,21.10
2018-06-10T19:33:16.903Z,21.10
2018-06-10T19:35:47.081Z,21.00
2018-06-10T19:38:17.346Z,20.90
2018-06-10T19:40:47.562Z,20.80
2018-06-10T19:43:17.840Z,20.70
2018-06-10T19:45:48.102Z,20.60
2018-06-10T19:48:18.302Z,20.60
2018-06-10T19:50:49.535Z,20.50
2018-06-10T19:53:19.653Z,20.50
2018-06-10T19:55:49.893Z,20.40
2018-06-10T19:58:20.151Z,20.30
2018-06-10T20:00:50.354Z,20.30
2018-06-10T20:03:20.708Z,20.20
2018-06-10T20:05:51.001Z,20.10
2018-06-10T20:08:21.113Z,20.00
2018-06-10T20:10:51.421Z,20.00
2018-06-10T20:13:21.689Z,19.90
2018-06-10T20:15:51.885Z,19.90
2018-06-10T20:20:52.093Z,19.80
2018-06-10T20:23:22.265Z,19.70
2018-06-10T20:25:52.534Z,19.70
2018-06-10T20:28:22.722Z,19.70
2018-06-10T20:30:52.837Z,19.60
2018-06-10T20:33:23.127Z,19.60
2018-06-10T20:35:53.339Z,19.60
2018-06-10T20:38:23.491Z,19.50
2018-06-10T20:40:53.952Z,19.50
2018-06-10T20:43:24.132Z,19.50
2018-06-10T20:45:54.540Z,19.50
2018-06-10T20:48:24.848Z,19.50
2018-06-10T20:50:55.740Z,19.50
2018-06-10T20:53:25.932Z,19.50
2018-06-10T20:55:56.080Z,19.50
2018-06-10T20:58:26.304Z,19.50
2018-06-10T21:00:56.404Z,19.50
2018-06-10T21:03:26.763Z,19.50
2018-06-10T21:05:56.855Z,19.50
2018-06-10T21:08:26.959Z,19.50
2018-06-10T21:10:56.971Z,19.40
2018-06-10T21:13:27.016Z,19.40
2018-06-10T21:15:57.280Z,19.40
2018-06-10T21:18:27.521Z,19.40
2018-06-10T21:20:57.493Z,19.40
2018-06-10T21:23:27.480Z,19.40
2018-06-10T21:25:57.462Z,19.40
2018-06-10T21:28:27.470Z,19.40
2018-06-10T21:30:57.698Z,19.40
2018-06-10T21:33:27.721Z,19.30
2018-06-10T21:35:57.724Z,19.30
2018-06-10T21:38:27.766Z,19.30
2018-06-10T21:40:58.017Z,19.20
2018-06-10T21:43:28.060Z,19.30
2018-06-10T21:45:58.087Z,19.20
2018-06-10T21:48:28.114Z,19.20
2018-06-10T21:50:58.120Z,19.20
2018-06-10T21:53:28.183Z,19.20
2018-06-10T21:55:58.240Z,19.20
2018-06-10T21:58:28.419Z,19.20
2018-06-10T22:00:59.068Z,19.20
2018-06-10T22:03:29.484Z,19.20
2018-06-10T22:05:59.508Z,19.20
2018-06-10T22:08:29.730Z,19.10
2018-06-10T22:10:59.716Z,19.00
2018-06-10T22:13:29.824Z,18.90
2018-06-10T22:15:59.923Z,18.90
2018-06-10T22:18:29.986Z,18.90
2018-06-10T22:21:00.037Z,18.90
2018-06-10T22:23:30.084Z,18.80
2018-06-10T22:26:00.077Z,18.70
2018-06-10T22:28:30.115Z,18.60
2018-06-10T22:31:00.134Z,18.60
2018-06-10T22:33:30.236Z,18.50
2018-06-10T22:36:00.288Z,18.40
2018-06-10T22:38:30.380Z,18.30
2018-06-10T22:41:00.402Z,18.20
2018-06-10T22:43:30.420Z,18.20
2018-06-10T22:46:00.432Z,18.10
2018-06-10T22:48:30.483Z,18.10
2018-06-10T22:51:00.492Z,18.10
2018-06-10T22:55:39.672Z,18.00
2018-06-10T22:58:09.743Z,17.90
2018-06-10T23:00:39.805Z,17.80
2018-06-10T23:03:09.966Z,17.70
2018-06-10T23:05:39.964Z,17.60
2018-06-10T23:08:09.980Z,17.50
2018-06-10T23:10:39.974Z,17.40
2018-06-10T23:13:10.049Z,17.40
2018-06-10T23:15:40.089Z,17.40
2018-06-10T23:18:10.098Z,17.40
2018-06-10T23:20:40.125Z,17.30
2018-06-10T23:23:10.128Z,17.30
2018-06-10T23:25:40.160Z,17.30
2018-06-10T23:28:10.258Z,17.30
2018-06-10T23:30:40.316Z,17.20
2018-06-10T23:33:10.376Z,17.20
2018-06-10T23:35:40.395Z,17.10
2018-06-10T23:38:10.414Z,17.00
2018-06-10T23:40:40.450Z,16.90
2018-06-10T23:43:10.499Z,16.80
2018-06-10T23:45:40.515Z,16.80
2018-06-10T23:48:10.536Z,16.70
2018-06-10T23:50:40.558Z,16.70
2018-06-10T23:53:10.637Z,16.70
2018-06-10T23:55:40.681Z,16.60
2018-06-10T23:58:10.893Z,16.60
